Ghurian, Afghanistan
Current Conditions -  °F | °C
As of 6:54 AM on Sunday 26 Oct 2014 (Local Time) from OAHR Reporting Station
Clear Clear  
Wind Chill: 54°   Ceiling: Unl
Heat Index: 54°   Visibility: 6mi
Dew Point: 21°   Wind: 3mph
Humidity: 28%   Direction: 170°S
Pressure: 30.09"   Gusts: NA
Location:  34.34°N, 61.47°E
Report Text: OAHR 260254Z 17003KT CAVOK 12/M06 Q1019 RMK SKC VIS MIN 9999 BLU
Loading
Personal Weather Stations






























Interactive Weather Map
Tropical Storm Tracking
New forecast layout! Learn more

10-Day Weather Forecast

Advertisements
Track Severe Weather on mobile